aviador You're here:

KGEV Decoded Metar

JEFFERSON in NC, USA
Report Time2018-07-21 07:35:00
UTC Time2018-07-21 08:01:44
Flight Rules vfr VFR
Wind330° at 04 kt
W.Decomp.*RWY 28: 2.2 kt HW 3.4 kt RCW
W.Rank330° ranks 10
Current wind is below 330° avg. (7.4)
Visibility9999 m
Phenomena:N/A
Clouds:N/A
Expected CloudBase > 1,200 ft AGL from Temp-Dew spread
CeilingNone
Temp16°C (ISA +7)
Dew Point13°C (83% RH)
AAT15.5°C
QNH1017 hPa
Density Alt4,114 ft
Elevation3,179 ft
Report Wrong Elevation
Raw Report
KGEV 210735Z AUTO 33004KT 10SM CLR 16/13 A3002 RMK AO2
T01560128=

Extra information for KGEV:More info

Metar Taf Metar & Taf Last 4 Metars F.Rules Stats Wind Profile Meteogram Temp Stats Airport Information Weather charts Add Link Nearby VenuesMetar ALERT Operation Metar Decoded Social comments

AIRNAV info for KGEV